sensor_id;sensor_type;location;lat;lon;timestamp;P1;durP1;ratioP1;P2;durP2;ratioP2
76193;SDS011;64963;52.212;7.482;2022-11-20T00:01:22;46.53;;;22.37;;
76193;SDS011;64963;52.212;7.482;2022-11-20T00:03:47;44.97;;;22.60;;
76193;SDS011;64963;52.212;7.482;2022-11-20T00:06:13;41.67;;;20.60;;
76193;SDS011;64963;52.212;7.482;2022-11-20T00:08:39;41.90;;;21.00;;
76193;SDS011;64963;52.212;7.482;2022-11-20T00:11:05;43.93;;;20.03;;
76193;SDS011;64963;52.212;7.482;2022-11-20T00:13:30;43.70;;;21.47;;
76193;SDS011;64963;52.212;7.482;2022-11-20T00:15:58;44.20;;;21.97;;
76193;SDS011;64963;52.212;7.482;2022-11-20T00:18:24;44.90;;;22.35;;
76193;SDS011;64963;52.212;7.482;2022-11-20T00:20:49;51.17;;;24.60;;
76193;SDS011;64963;52.212;7.482;2022-11-20T00:23:14;43.50;;;21.55;;
76193;SDS011;64963;52.212;7.482;2022-11-20T00:25:40;44.55;;;21.60;;
76193;SDS011;64963;52.212;7.482;2022-11-20T00:28:05;49.37;;;22.57;;
76193;SDS011;64963;52.212;7.482;2022-11-20T00:30:30;48.75;;;22.55;;
76193;SDS011;64963;52.212;7.482;2022-11-20T00:32:56;48.20;;;22.23;;
76193;SDS011;64963;52.212;7.482;2022-11-20T00:35:21;45.57;;;21.47;;
76193;SDS011;64963;52.212;7.482;2022-11-20T00:37:46;46.87;;;21.30;;
76193;SDS011;64963;52.212;7.482;2022-11-20T00:40:11;51.97;;;23.53;;
76193;SDS011;64963;52.212;7.482;2022-11-20T00:42:37;48.67;;;20.93;;
76193;SDS011;64963;52.212;7.482;2022-11-20T00:45:02;50.27;;;23.63;;
76193;SDS011;64963;52.212;7.482;2022-11-20T00:47:27;42.13;;;19.00;;
76193;SDS011;64963;52.212;7.482;2022-11-20T00:49:52;46.77;;;21.10;;
76193;SDS011;64963;52.212;7.482;2022-11-20T00:52:17;43.87;;;19.97;;
76193;SDS011;64963;52.212;7.482;2022-11-20T00:54:43;40.17;;;20.23;;
76193;SDS011;64963;52.212;7.482;2022-11-20T00:57:08;42.70;;;18.97;;
76193;SDS011;64963;52.212;7.482;2022-11-20T00:59:33;40.73;;;18.37;;
76193;SDS011;64963;52.212;7.482;2022-11-20T01:01:58;33.40;;;15.37;;
76193;SDS011;64963;52.212;7.482;2022-11-20T01:04:23;35.17;;;16.60;;
76193;SDS011;64963;52.212;7.482;2022-11-20T01:06:48;32.63;;;16.03;;
76193;SDS011;64963;52.212;7.482;2022-11-20T01:09:14;34.73;;;15.33;;
76193;SDS011;64963;52.212;7.482;2022-11-20T01:11:40;37.58;;;16.55;;
76193;SDS011;64963;52.212;7.482;2022-11-20T01:14:07;36.27;;;16.27;;
76193;SDS011;64963;52.212;7.482;2022-11-20T01:16:36;35.25;;;16.52;;
76193;SDS011;64963;52.212;7.482;2022-11-20T01:19:04;39.22;;;19.20;;
76193;SDS011;64963;52.212;7.482;2022-11-20T01:21:30;36.78;;;17.23;;
76193;SDS011;64963;52.212;7.482;2022-11-20T01:23:56;37.75;;;18.27;;
76193;SDS011;64963;52.212;7.482;2022-11-20T01:26:22;38.73;;;18.70;;
76193;SDS011;64963;52.212;7.482;2022-11-20T01:28:48;43.55;;;19.73;;
76193;SDS011;64963;52.212;7.482;2022-11-20T01:31:17;38.03;;;18.87;;
76193;SDS011;64963;52.212;7.482;2022-11-20T01:33:43;37.60;;;18.02;;
76193;SDS011;64963;52.212;7.482;2022-11-20T01:36:09;37.50;;;17.43;;
76193;SDS011;64963;52.212;7.482;2022-11-20T01:38:34;40.17;;;18.75;;
76193;SDS011;64963;52.212;7.482;2022-11-20T01:40:59;44.37;;;20.50;;
76193;SDS011;64963;52.212;7.482;2022-11-20T01:43:25;40.60;;;19.33;;
76193;SDS011;64963;52.212;7.482;2022-11-20T01:51:28;40.70;;;19.08;;
76193;SDS011;64963;52.212;7.482;2022-11-20T01:53:54;40.85;;;20.63;;
76193;SDS011;64963;52.212;7.482;2022-11-20T01:56:21;47.10;;;21.77;;
76193;SDS011;64963;52.212;7.482;2022-11-20T01:58:50;40.53;;;19.20;;
76193;SDS011;64963;52.212;7.482;2022-11-20T02:01:16;42.78;;;20.70;;
76193;SDS011;64963;52.212;7.482;2022-11-20T02:03:41;34.80;;;18.03;;
76193;SDS011;64963;52.212;7.482;2022-11-20T02:06:10;43.67;;;20.00;;
76193;SDS011;64963;52.212;7.482;2022-11-20T02:08:37;33.50;;;16.20;;
76193;SDS011;64963;52.212;7.482;2022-11-20T02:11:02;31.47;;;14.43;;
76193;SDS011;64963;52.212;7.482;2022-11-20T02:13:27;32.05;;;14.80;;
76193;SDS011;64963;52.212;7.482;2022-11-20T02:15:52;41.87;;;20.20;;
76193;SDS011;64963;52.212;7.482;2022-11-20T02:18:19;41.47;;;19.00;;
76193;SDS011;64963;52.212;7.482;2022-11-20T02:20:45;37.45;;;16.95;;
76193;SDS011;64963;52.212;7.482;2022-11-20T02:25:49;32.67;;;15.83;;
76193;SDS011;64963;52.212;7.482;2022-11-20T02:28:14;31.90;;;15.85;;
76193;SDS011;64963;52.212;7.482;2022-11-20T02:30:40;32.07;;;14.20;;
76193;SDS011;64963;52.212;7.482;2022-11-20T02:33:05;27.07;;;13.53;;
76193;SDS011;64963;52.212;7.482;2022-11-20T02:37:56;32.20;;;14.55;;
76193;SDS011;64963;52.212;7.482;2022-11-20T02:40:22;32.88;;;16.00;;
76193;SDS011;64963;52.212;7.482;2022-11-20T02:42:47;30.63;;;15.07;;
76193;SDS011;64963;52.212;7.482;2022-11-20T02:45:12;31.20;;;14.53;;
76193;SDS011;64963;52.212;7.482;2022-11-20T02:47:37;33.70;;;16.47;;
76193;SDS011;64963;52.212;7.482;2022-11-20T02:50:03;34.50;;;15.93;;
76193;SDS011;64963;52.212;7.482;2022-11-20T02:52:28;28.50;;;14.23;;
76193;SDS011;64963;52.212;7.482;2022-11-20T02:54:53;30.57;;;15.83;;
76193;SDS011;64963;52.212;7.482;2022-11-20T02:57:19;34.95;;;16.50;;
76193;SDS011;64963;52.212;7.482;2022-11-20T02:59:44;32.23;;;15.33;;
76193;SDS011;64963;52.212;7.482;2022-11-20T03:02:09;29.03;;;14.50;;
76193;SDS011;64963;52.212;7.482;2022-11-20T03:04:35;32.03;;;15.33;;
76193;SDS011;64963;52.212;7.482;2022-11-20T03:07:00;29.27;;;14.00;;
76193;SDS011;64963;52.212;7.482;2022-11-20T03:09:25;34.63;;;16.13;;
76193;SDS011;64963;52.212;7.482;2022-11-20T03:11:50;34.80;;;16.47;;
76193;SDS011;64963;52.212;7.482;2022-11-20T03:14:16;28.53;;;15.13;;
76193;SDS011;64963;52.212;7.482;2022-11-20T03:16:41;31.23;;;14.30;;
76193;SDS011;64963;52.212;7.482;2022-11-20T03:19:06;32.30;;;15.57;;
76193;SDS011;64963;52.212;7.482;2022-11-20T03:21:34;28.67;;;14.23;;
76193;SDS011;64963;52.212;7.482;2022-11-20T03:24:00;34.10;;;16.27;;
76193;SDS011;64963;52.212;7.482;2022-11-20T03:26:25;28.10;;;14.18;;
76193;SDS011;64963;52.212;7.482;2022-11-20T03:29:00;31.00;;;14.47;;
76193;SDS011;64963;52.212;7.482;2022-11-20T03:31:27;30.05;;;14.02;;
76193;SDS011;64963;52.212;7.482;2022-11-20T03:33:53;31.38;;;15.48;;
76193;SDS011;64963;52.212;7.482;2022-11-20T03:36:18;35.03;;;15.52;;
76193;SDS011;64963;52.212;7.482;2022-11-20T03:38:43;35.37;;;15.67;;
76193;SDS011;64963;52.212;7.482;2022-11-20T03:41:10;34.08;;;16.02;;
76193;SDS011;64963;52.212;7.482;2022-11-20T03:43:35;32.80;;;15.43;;
76193;SDS011;64963;52.212;7.482;2022-11-20T03:46:01;28.35;;;14.43;;
76193;SDS011;64963;52.212;7.482;2022-11-20T03:48:26;35.27;;;15.87;;
76193;SDS011;64963;52.212;7.482;2022-11-20T03:50:52;35.90;;;16.60;;
76193;SDS011;64963;52.212;7.482;2022-11-20T03:53:18;31.33;;;14.80;;
76193;SDS011;64963;52.212;7.482;2022-11-20T03:55:43;30.00;;;15.20;;
76193;SDS011;64963;52.212;7.482;2022-11-20T03:58:08;38.90;;;17.17;;
76193;SDS011;64963;52.212;7.482;2022-11-20T04:00:34;40.87;;;17.40;;
76193;SDS011;64963;52.212;7.482;2022-11-20T04:02:59;32.77;;;16.30;;
76193;SDS011;64963;52.212;7.482;2022-11-20T04:05:24;37.33;;;16.50;;
76193;SDS011;64963;52.212;7.482;2022-11-20T04:07:50;36.20;;;17.10;;
76193;SDS011;64963;52.212;7.482;2022-11-20T04:10:15;36.43;;;16.97;;
76193;SDS011;64963;52.212;7.482;2022-11-20T04:12:40;38.53;;;15.67;;
76193;SDS011;64963;52.212;7.482;2022-11-20T04:15:05;31.63;;;14.80;;
76193;SDS011;64963;52.212;7.482;2022-11-20T04:17:30;33.03;;;15.67;;
76193;SDS011;64963;52.212;7.482;2022-11-20T04:19:56;37.13;;;16.35;;
76193;SDS011;64963;52.212;7.482;2022-11-20T04:22:21;32.13;;;16.37;;
76193;SDS011;64963;52.212;7.482;2022-11-20T04:24:46;36.23;;;16.47;;
76193;SDS011;64963;52.212;7.482;2022-11-20T04:27:11;38.63;;;17.70;;
76193;SDS011;64963;52.212;7.482;2022-11-20T04:29:37;36.73;;;17.63;;
76193;SDS011;64963;52.212;7.482;2022-11-20T04:32:03;33.13;;;15.88;;
76193;SDS011;64963;52.212;7.482;2022-11-20T04:34:28;32.83;;;13.63;;
76193;SDS011;64963;52.212;7.482;2022-11-20T04:36:53;34.97;;;16.03;;
76193;SDS011;64963;52.212;7.482;2022-11-20T04:39:18;32.33;;;15.60;;
76193;SDS011;64963;52.212;7.482;2022-11-20T04:41:43;29.07;;;13.63;;
76193;SDS011;64963;52.212;7.482;2022-11-20T04:44:09;35.50;;;16.43;;
76193;SDS011;64963;52.212;7.482;2022-11-20T04:46:41;28.60;;;15.03;;
76193;SDS011;64963;52.212;7.482;2022-11-20T04:49:07;35.25;;;15.93;;
76193;SDS011;64963;52.212;7.482;2022-11-20T04:51:32;33.03;;;17.00;;
76193;SDS011;64963;52.212;7.482;2022-11-20T04:53:58;34.87;;;17.60;;
76193;SDS011;64963;52.212;7.482;2022-11-20T04:56:23;35.13;;;17.17;;
76193;SDS011;64963;52.212;7.482;2022-11-20T04:58:49;36.85;;;17.95;;
76193;SDS011;64963;52.212;7.482;2022-11-20T05:01:16;42.37;;;18.77;;
76193;SDS011;64963;52.212;7.482;2022-11-20T05:03:42;42.58;;;18.50;;
76193;SDS011;64963;52.212;7.482;2022-11-20T05:06:08;37.57;;;18.10;;
76193;SDS011;64963;52.212;7.482;2022-11-20T05:08:33;41.72;;;18.63;;
76193;SDS011;64963;52.212;7.482;2022-11-20T05:11:03;39.70;;;17.80;;
76193;SDS011;64963;52.212;7.482;2022-11-20T05:13:28;41.08;;;17.65;;
76193;SDS011;64963;52.212;7.482;2022-11-20T05:15:53;41.93;;;17.90;;
76193;SDS011;64963;52.212;7.482;2022-11-20T05:18:18;36.37;;;16.80;;
76193;SDS011;64963;52.212;7.482;2022-11-20T05:20:44;39.10;;;18.47;;
76193;SDS011;64963;52.212;7.482;2022-11-20T05:23:09;39.07;;;17.10;;
76193;SDS011;64963;52.212;7.482;2022-11-20T05:25:34;43.07;;;18.17;;
76193;SDS011;64963;52.212;7.482;2022-11-20T05:27:59;34.17;;;16.53;;
76193;SDS011;64963;52.212;7.482;2022-11-20T05:30:24;36.93;;;15.93;;
76193;SDS011;64963;52.212;7.482;2022-11-20T05:32:50;35.13;;;17.50;;
76193;SDS011;64963;52.212;7.482;2022-11-20T05:35:15;46.28;;;19.10;;
76193;SDS011;64963;52.212;7.482;2022-11-20T05:37:40;40.13;;;16.67;;
76193;SDS011;64963;52.212;7.482;2022-11-20T05:40:05;29.43;;;14.77;;
76193;SDS011;64963;52.212;7.482;2022-11-20T05:42:31;36.50;;;16.60;;
76193;SDS011;64963;52.212;7.482;2022-11-20T05:44:56;39.53;;;17.63;;
76193;SDS011;64963;52.212;7.482;2022-11-20T05:47:21;35.63;;;16.10;;
76193;SDS011;64963;52.212;7.482;2022-11-20T05:49:47;32.37;;;14.83;;
76193;SDS011;64963;52.212;7.482;2022-11-20T05:52:12;34.20;;;15.77;;
76193;SDS011;64963;52.212;7.482;2022-11-20T05:54:37;34.13;;;15.47;;
76193;SDS011;64963;52.212;7.482;2022-11-20T05:57:02;32.00;;;14.70;;
76193;SDS011;64963;52.212;7.482;2022-11-20T05:59:27;28.87;;;15.27;;
76193;SDS011;64963;52.212;7.482;2022-11-20T06:01:53;35.77;;;16.30;;
76193;SDS011;64963;52.212;7.482;2022-11-20T06:04:18;36.33;;;15.33;;
76193;SDS011;64963;52.212;7.482;2022-11-20T06:06:43;32.57;;;14.90;;
76193;SDS011;64963;52.212;7.482;2022-11-20T06:09:08;35.33;;;17.10;;
76193;SDS011;64963;52.212;7.482;2022-11-20T06:11:33;36.10;;;17.20;;
76193;SDS011;64963;52.212;7.482;2022-11-20T06:13:59;38.23;;;16.87;;
76193;SDS011;64963;52.212;7.482;2022-11-20T06:16:25;33.90;;;14.80;;
76193;SDS011;64963;52.212;7.482;2022-11-20T06:18:50;31.23;;;15.10;;
76193;SDS011;64963;52.212;7.482;2022-11-20T06:21:16;35.47;;;15.57;;
76193;SDS011;64963;52.212;7.482;2022-11-20T06:23:42;35.47;;;15.88;;
76193;SDS011;64963;52.212;7.482;2022-11-20T06:26:08;31.70;;;14.77;;
76193;SDS011;64963;52.212;7.482;2022-11-20T06:28:33;35.85;;;16.17;;
76193;SDS011;64963;52.212;7.482;2022-11-20T06:30:59;36.43;;;16.00;;
76193;SDS011;64963;52.212;7.482;2022-11-20T06:33:24;34.37;;;15.47;;
76193;SDS011;64963;52.212;7.482;2022-11-20T06:35:50;33.58;;;15.10;;
76193;SDS011;64963;52.212;7.482;2022-11-20T06:38:16;37.07;;;16.63;;
76193;SDS011;64963;52.212;7.482;2022-11-20T06:40:41;32.37;;;15.53;;
76193;SDS011;64963;52.212;7.482;2022-11-20T06:43:07;33.22;;;15.05;;
76193;SDS011;64963;52.212;7.482;2022-11-20T06:45:32;29.27;;;15.57;;
76193;SDS011;64963;52.212;7.482;2022-11-20T06:48:00;31.45;;;14.43;;
76193;SDS011;64963;52.212;7.482;2022-11-20T06:50:29;27.55;;;13.73;;
76193;SDS011;64963;52.212;7.482;2022-11-20T06:52:54;30.00;;;12.90;;
76193;SDS011;64963;52.212;7.482;2022-11-20T06:55:19;31.40;;;13.67;;
76193;SDS011;64963;52.212;7.482;2022-11-20T06:57:45;32.53;;;13.73;;
76193;SDS011;64963;52.212;7.482;2022-11-20T07:00:10;30.10;;;14.37;;
76193;SDS011;64963;52.212;7.482;2022-11-20T07:02:35;28.03;;;13.67;;
76193;SDS011;64963;52.212;7.482;2022-11-20T07:05:00;32.35;;;14.25;;
76193;SDS011;64963;52.212;7.482;2022-11-20T07:07:26;36.70;;;15.25;;
76193;SDS011;64963;52.212;7.482;2022-11-20T07:09:51;30.77;;;14.20;;
76193;SDS011;64963;52.212;7.482;2022-11-20T07:12:16;26.43;;;13.97;;
76193;SDS011;64963;52.212;7.482;2022-11-20T07:14:41;32.33;;;15.13;;
76193;SDS011;64963;52.212;7.482;2022-11-20T07:17:06;38.00;;;15.97;;
76193;SDS011;64963;52.212;7.482;2022-11-20T07:19:32;39.07;;;17.13;;
76193;SDS011;64963;52.212;7.482;2022-11-20T07:21:57;32.63;;;15.93;;
76193;SDS011;64963;52.212;7.482;2022-11-20T07:24:22;36.90;;;16.63;;
76193;SDS011;64963;52.212;7.482;2022-11-20T07:26:48;34.10;;;16.20;;
76193;SDS011;64963;52.212;7.482;2022-11-20T07:29:13;40.53;;;18.90;;
76193;SDS011;64963;52.212;7.482;2022-11-20T07:31:38;39.30;;;17.15;;
76193;SDS011;64963;52.212;7.482;2022-11-20T07:34:03;35.93;;;18.13;;
76193;SDS011;64963;52.212;7.482;2022-11-20T07:36:29;30.93;;;15.30;;
76193;SDS011;64963;52.212;7.482;2022-11-20T07:38:54;32.03;;;14.70;;
76193;SDS011;64963;52.212;7.482;2022-11-20T07:41:19;27.90;;;14.20;;
76193;SDS011;64963;52.212;7.482;2022-11-20T07:43:45;27.87;;;15.37;;
76193;SDS011;64963;52.212;7.482;2022-11-20T07:46:10;24.20;;;13.63;;
76193;SDS011;64963;52.212;7.482;2022-11-20T07:48:36;27.13;;;13.10;;
76193;SDS011;64963;52.212;7.482;2022-11-20T07:51:01;26.03;;;14.20;;
76193;SDS011;64963;52.212;7.482;2022-11-20T07:53:26;20.83;;;11.37;;
76193;SDS011;64963;52.212;7.482;2022-11-20T07:55:51;24.40;;;13.23;;
76193;SDS011;64963;52.212;7.482;2022-11-20T07:58:16;23.50;;;12.73;;
76193;SDS011;64963;52.212;7.482;2022-11-20T08:00:42;24.80;;;14.47;;
76193;SDS011;64963;52.212;7.482;2022-11-20T08:03:07;27.10;;;14.85;;
76193;SDS011;64963;52.212;7.482;2022-11-20T08:05:32;26.47;;;14.70;;
76193;SDS011;64963;52.212;7.482;2022-11-20T08:07:57;26.20;;;14.67;;
76193;SDS011;64963;52.212;7.482;2022-11-20T08:10:22;22.00;;;13.97;;
76193;SDS011;64963;52.212;7.482;2022-11-20T08:12:48;24.40;;;14.97;;
76193;SDS011;64963;52.212;7.482;2022-11-20T08:15:14;27.93;;;15.77;;
76193;SDS011;64963;52.212;7.482;2022-11-20T08:17:39;24.83;;;14.23;;
76193;SDS011;64963;52.212;7.482;2022-11-20T08:20:04;42.53;;;23.87;;
76193;SDS011;64963;52.212;7.482;2022-11-20T08:22:29;28.50;;;16.27;;
76193;SDS011;64963;52.212;7.482;2022-11-20T08:24:54;25.00;;;14.93;;
76193;SDS011;64963;52.212;7.482;2022-11-20T08:27:20;33.40;;;16.83;;
76193;SDS011;64963;52.212;7.482;2022-11-20T08:29:45;26.67;;;15.90;;
76193;SDS011;64963;52.212;7.482;2022-11-20T08:32:10;27.20;;;17.97;;
76193;SDS011;64963;52.212;7.482;2022-11-20T08:34:35;25.93;;;15.83;;
76193;SDS011;64963;52.212;7.482;2022-11-20T08:37:01;23.80;;;16.03;;
76193;SDS011;64963;52.212;7.482;2022-11-20T08:39:26;30.10;;;15.47;;
76193;SDS011;64963;52.212;7.482;2022-11-20T08:41:51;25.00;;;14.83;;
76193;SDS011;64963;52.212;7.482;2022-11-20T08:44:17;23.90;;;15.80;;
76193;SDS011;64963;52.212;7.482;2022-11-20T08:46:42;25.63;;;16.10;;
76193;SDS011;64963;52.212;7.482;2022-11-20T08:49:11;25.92;;;16.73;;
76193;SDS011;64963;52.212;7.482;2022-11-20T08:51:36;26.05;;;15.10;;
76193;SDS011;64963;52.212;7.482;2022-11-20T08:54:02;23.60;;;14.90;;
76193;SDS011;64963;52.212;7.482;2022-11-20T08:56:27;25.27;;;14.43;;
76193;SDS011;64963;52.212;7.482;2022-11-20T08:58:53;24.30;;;15.57;;
76193;SDS011;64963;52.212;7.482;2022-11-20T09:01:18;23.27;;;15.10;;
76193;SDS011;64963;52.212;7.482;2022-11-20T09:03:44;24.80;;;15.35;;
76193;SDS011;64963;52.212;7.482;2022-11-20T09:06:09;25.20;;;14.40;;
76193;SDS011;64963;52.212;7.482;2022-11-20T09:08:34;26.70;;;16.90;;
76193;SDS011;64963;52.212;7.482;2022-11-20T09:10:59;23.40;;;14.73;;
76193;SDS011;64963;52.212;7.482;2022-11-20T09:13:25;24.43;;;14.90;;
76193;SDS011;64963;52.212;7.482;2022-11-20T09:15:55;26.27;;;14.98;;
76193;SDS011;64963;52.212;7.482;2022-11-20T09:18:20;27.77;;;14.82;;
76193;SDS011;64963;52.212;7.482;2022-11-20T09:20:45;34.07;;;17.03;;
76193;SDS011;64963;52.212;7.482;2022-11-20T09:23:10;32.23;;;14.97;;
76193;SDS011;64963;52.212;7.482;2022-11-20T09:25:36;34.73;;;16.20;;
